sensor_id;sensor_type;location;lat;lon;timestamp;temperature;humidity
25732;DHT22;13585;50.864;4.406;2022-12-29T00:01:08;16.70;82.70
25732;DHT22;13585;50.864;4.406;2022-12-29T00:03:34;16.70;82.60
25732;DHT22;13585;50.864;4.406;2022-12-29T00:06:00;16.70;82.70
25732;DHT22;13585;50.864;4.406;2022-12-29T00:11:36;16.70;82.60
25732;DHT22;13585;50.864;4.406;2022-12-29T00:14:23;16.70;82.50
25732;DHT22;13585;50.864;4.406;2022-12-29T00:17:10;16.70;82.60
25732;DHT22;13585;50.864;4.406;2022-12-29T00:19:36;16.70;82.50
25732;DHT22;13585;50.864;4.406;2022-12-29T00:22:20;16.70;82.40
25732;DHT22;13585;50.864;4.406;2022-12-29T00:25:07;16.70;82.40
25732;DHT22;13585;50.864;4.406;2022-12-29T00:27:55;16.70;82.30
25732;DHT22;13585;50.864;4.406;2022-12-29T00:31:16;16.70;82.30
25732;DHT22;13585;50.864;4.406;2022-12-29T00:34:00;16.60;82.30
25732;DHT22;13585;50.864;4.406;2022-12-29T00:36:45;16.70;82.20
25732;DHT22;13585;50.864;4.406;2022-12-29T00:39:13;16.70;82.20
25732;DHT22;13585;50.864;4.406;2022-12-29T00:42:08;16.60;82.10
25732;DHT22;13585;50.864;4.406;2022-12-29T00:45:03;16.60;82.20
25732;DHT22;13585;50.864;4.406;2022-12-29T01:02:52;16.70;81.90
25732;DHT22;13585;50.864;4.406;2022-12-29T01:05:17;16.70;81.80
25732;DHT22;13585;50.864;4.406;2022-12-29T01:07:43;16.60;81.70
25732;DHT22;13585;50.864;4.406;2022-12-29T01:10:08;16.60;81.70
25732;DHT22;13585;50.864;4.406;2022-12-29T01:12:37;16.60;81.70
25732;DHT22;13585;50.864;4.406;2022-12-29T01:15:08;16.70;81.60
25732;DHT22;13585;50.864;4.406;2022-12-29T01:17:34;16.60;81.60
25732;DHT22;13585;50.864;4.406;2022-12-29T01:19:59;16.70;81.60
25732;DHT22;13585;50.864;4.406;2022-12-29T01:22:25;16.70;81.60
25732;DHT22;13585;50.864;4.406;2022-12-29T01:24:51;16.70;81.50
25732;DHT22;13585;50.864;4.406;2022-12-29T01:27:16;16.60;81.40
25732;DHT22;13585;50.864;4.406;2022-12-29T01:29:42;16.70;81.40
25732;DHT22;13585;50.864;4.406;2022-12-29T01:32:07;16.60;81.40
25732;DHT22;13585;50.864;4.406;2022-12-29T01:34:41;16.60;81.30
25732;DHT22;13585;50.864;4.406;2022-12-29T01:37:07;16.60;81.20
25732;DHT22;13585;50.864;4.406;2022-12-29T01:39:32;16.60;81.20
25732;DHT22;13585;50.864;4.406;2022-12-29T01:41:58;16.60;81.10
25732;DHT22;13585;50.864;4.406;2022-12-29T01:47:08;16.60;81.10
25732;DHT22;13585;50.864;4.406;2022-12-29T01:49:34;16.60;80.90
25732;DHT22;13585;50.864;4.406;2022-12-29T01:52:03;16.60;80.90
25732;DHT22;13585;50.864;4.406;2022-12-29T01:54:33;16.60;80.90
25732;DHT22;13585;50.864;4.406;2022-12-29T01:57:04;16.60;80.80
25732;DHT22;13585;50.864;4.406;2022-12-29T01:59:34;16.60;80.80
25732;DHT22;13585;50.864;4.406;2022-12-29T02:02:02;16.60;80.80
25732;DHT22;13585;50.864;4.406;2022-12-29T02:04:31;16.60;80.70
25732;DHT22;13585;50.864;4.406;2022-12-29T02:07:01;16.60;80.70
25732;DHT22;13585;50.864;4.406;2022-12-29T02:09:28;16.60;80.60
25732;DHT22;13585;50.864;4.406;2022-12-29T02:11:54;16.60;80.60
25732;DHT22;13585;50.864;4.406;2022-12-29T02:14:19;16.60;80.50
25732;DHT22;13585;50.864;4.406;2022-12-29T02:17:15;16.60;80.50
25732;DHT22;13585;50.864;4.406;2022-12-29T02:23:26;16.60;80.50
25732;DHT22;13585;50.864;4.406;2022-12-29T02:26:16;16.60;80.30
25732;DHT22;13585;50.864;4.406;2022-12-29T02:37:26;16.60;80.10
25732;DHT22;13585;50.864;4.406;2022-12-29T02:40:33;16.60;80.20
25732;DHT22;13585;50.864;4.406;2022-12-29T02:43:34;16.60;80.10
25732;DHT22;13585;50.864;4.406;2022-12-29T02:46:37;16.50;80.00
25732;DHT22;13585;50.864;4.406;2022-12-29T02:49:33;16.50;80.00
25732;DHT22;13585;50.864;4.406;2022-12-29T02:54:36;16.60;79.90
25732;DHT22;13585;50.864;4.406;2022-12-29T02:57:14;16.60;79.90
25732;DHT22;13585;50.864;4.406;2022-12-29T02:59:43;16.50;79.80
25732;DHT22;13585;50.864;4.406;2022-12-29T03:07:43;16.50;79.80
25732;DHT22;13585;50.864;4.406;2022-12-29T03:10:32;16.50;79.60
25732;DHT22;13585;50.864;4.406;2022-12-29T03:16:07;16.50;79.50
25732;DHT22;13585;50.864;4.406;2022-12-29T03:19:08;16.50;79.50
25732;DHT22;13585;50.864;4.406;2022-12-29T03:22:00;16.50;79.50
25732;DHT22;13585;50.864;4.406;2022-12-29T03:24:48;16.50;79.50
25732;DHT22;13585;50.864;4.406;2022-12-29T03:27:21;16.60;79.40
25732;DHT22;13585;50.864;4.406;2022-12-29T03:29:51;16.50;79.30
25732;DHT22;13585;50.864;4.406;2022-12-29T03:32:45;16.50;79.30
25732;DHT22;13585;50.864;4.406;2022-12-29T03:35:14;16.60;79.40
25732;DHT22;13585;50.864;4.406;2022-12-29T03:37:50;16.50;79.20
25732;DHT22;13585;50.864;4.406;2022-12-29T03:40:21;16.50;79.20
25732;DHT22;13585;50.864;4.406;2022-12-29T03:42:47;16.50;79.10
25732;DHT22;13585;50.864;4.406;2022-12-29T03:45:13;16.50;79.00
25732;DHT22;13585;50.864;4.406;2022-12-29T03:47:39;16.60;79.10
25732;DHT22;13585;50.864;4.406;2022-12-29T03:50:05;16.60;79.10
25732;DHT22;13585;50.864;4.406;2022-12-29T03:52:31;16.50;79.00
25732;DHT22;13585;50.864;4.406;2022-12-29T03:54:58;16.60;79.00
25732;DHT22;13585;50.864;4.406;2022-12-29T03:57:24;16.50;79.60
25732;DHT22;13585;50.864;4.406;2022-12-29T03:59:49;16.50;78.80
25732;DHT22;13585;50.864;4.406;2022-12-29T04:02:15;16.50;78.80
25732;DHT22;13585;50.864;4.406;2022-12-29T04:04:40;16.50;78.80
25732;DHT22;13585;50.864;4.406;2022-12-29T04:07:06;16.50;78.70
25732;DHT22;13585;50.864;4.406;2022-12-29T04:09:32;16.60;78.70
25732;DHT22;13585;50.864;4.406;2022-12-29T04:11:57;16.60;78.70
25732;DHT22;13585;50.864;4.406;2022-12-29T04:14:23;16.50;78.50
25732;DHT22;13585;50.864;4.406;2022-12-29T04:16:49;16.50;78.50
25732;DHT22;13585;50.864;4.406;2022-12-29T04:19:14;16.50;78.50
25732;DHT22;13585;50.864;4.406;2022-12-29T04:21:43;16.50;78.50
25732;DHT22;13585;50.864;4.406;2022-12-29T04:24:08;16.50;78.50
25732;DHT22;13585;50.864;4.406;2022-12-29T04:26:34;16.50;78.40
25732;DHT22;13585;50.864;4.406;2022-12-29T04:28:59;16.50;78.30
25732;DHT22;13585;50.864;4.406;2022-12-29T04:31:25;16.50;78.30
25732;DHT22;13585;50.864;4.406;2022-12-29T04:33:51;16.50;78.30
25732;DHT22;13585;50.864;4.406;2022-12-29T04:36:16;16.50;78.30
25732;DHT22;13585;50.864;4.406;2022-12-29T04:38:42;16.50;78.20
25732;DHT22;13585;50.864;4.406;2022-12-29T04:41:07;16.50;78.30
25732;DHT22;13585;50.864;4.406;2022-12-29T04:43:33;16.50;78.20
25732;DHT22;13585;50.864;4.406;2022-12-29T04:45:59;16.50;78.10
25732;DHT22;13585;50.864;4.406;2022-12-29T04:48:24;16.50;78.10
25732;DHT22;13585;50.864;4.406;2022-12-29T04:50:50;16.50;78.10
25732;DHT22;13585;50.864;4.406;2022-12-29T04:53:16;16.50;78.10
25732;DHT22;13585;50.864;4.406;2022-12-29T04:58:45;16.50;77.90
25732;DHT22;13585;50.864;4.406;2022-12-29T05:01:11;16.50;77.90
25732;DHT22;13585;50.864;4.406;2022-12-29T05:03:36;16.50;77.80
25732;DHT22;13585;50.864;4.406;2022-12-29T05:06:02;16.50;77.80
25732;DHT22;13585;50.864;4.406;2022-12-29T05:08:28;16.50;77.80
25732;DHT22;13585;50.864;4.406;2022-12-29T05:10:54;16.50;77.80
25732;DHT22;13585;50.864;4.406;2022-12-29T05:13:19;16.50;77.80
25732;DHT22;13585;50.864;4.406;2022-12-29T05:15:52;16.50;77.70
25732;DHT22;13585;50.864;4.406;2022-12-29T05:18:18;16.50;77.70
25732;DHT22;13585;50.864;4.406;2022-12-29T05:20:45;16.50;77.70
25732;DHT22;13585;50.864;4.406;2022-12-29T05:23:11;16.50;77.70
25732;DHT22;13585;50.864;4.406;2022-12-29T05:25:36;16.50;77.60
25732;DHT22;13585;50.864;4.406;2022-12-29T05:28:02;16.50;77.60
25732;DHT22;13585;50.864;4.406;2022-12-29T05:30:28;16.50;77.50
25732;DHT22;13585;50.864;4.406;2022-12-29T05:32:54;16.50;77.60
25732;DHT22;13585;50.864;4.406;2022-12-29T05:35:19;16.50;77.50
25732;DHT22;13585;50.864;4.406;2022-12-29T05:37:45;16.50;77.40
25732;DHT22;13585;50.864;4.406;2022-12-29T05:40:11;16.50;77.40
25732;DHT22;13585;50.864;4.406;2022-12-29T05:47:47;16.50;77.30
25732;DHT22;13585;50.864;4.406;2022-12-29T05:50:13;16.50;77.30
25732;DHT22;13585;50.864;4.406;2022-12-29T05:52:38;16.50;77.30
25732;DHT22;13585;50.864;4.406;2022-12-29T05:55:04;16.50;77.20
25732;DHT22;13585;50.864;4.406;2022-12-29T05:57:30;16.50;77.20
25732;DHT22;13585;50.864;4.406;2022-12-29T05:59:55;16.50;77.10
25732;DHT22;13585;50.864;4.406;2022-12-29T06:02:21;16.50;77.10
25732;DHT22;13585;50.864;4.406;2022-12-29T06:04:47;16.50;77.10
25732;DHT22;13585;50.864;4.406;2022-12-29T06:07:12;16.50;77.10
25732;DHT22;13585;50.864;4.406;2022-12-29T06:09:38;16.50;77.10
25732;DHT22;13585;50.864;4.406;2022-12-29T06:12:04;16.50;77.10
25732;DHT22;13585;50.864;4.406;2022-12-29T06:14:29;16.50;77.00
25732;DHT22;13585;50.864;4.406;2022-12-29T06:16:55;16.50;76.90
25732;DHT22;13585;50.864;4.406;2022-12-29T06:19:21;16.50;76.90
25732;DHT22;13585;50.864;4.406;2022-12-29T06:21:46;16.50;76.90
25732;DHT22;13585;50.864;4.406;2022-12-29T06:24:12;16.50;76.90
25732;DHT22;13585;50.864;4.406;2022-12-29T06:26:37;16.50;76.90
25732;DHT22;13585;50.864;4.406;2022-12-29T06:29:03;16.50;76.90
25732;DHT22;13585;50.864;4.406;2022-12-29T06:31:29;16.50;76.80
25732;DHT22;13585;50.864;4.406;2022-12-29T06:33:54;16.50;76.80
25732;DHT22;13585;50.864;4.406;2022-12-29T06:36:20;16.50;76.70
25732;DHT22;13585;50.864;4.406;2022-12-29T06:38:46;16.50;76.70
25732;DHT22;13585;50.864;4.406;2022-12-29T06:41:11;16.50;76.70
25732;DHT22;13585;50.864;4.406;2022-12-29T06:43:37;16.50;76.70
25732;DHT22;13585;50.864;4.406;2022-12-29T06:46:04;16.50;76.70
25732;DHT22;13585;50.864;4.406;2022-12-29T06:48:30;16.50;76.60
25732;DHT22;13585;50.864;4.406;2022-12-29T06:50:56;16.50;76.60
25732;DHT22;13585;50.864;4.406;2022-12-29T06:53:21;16.50;76.60
25732;DHT22;13585;50.864;4.406;2022-12-29T06:55:47;16.50;76.50
25732;DHT22;13585;50.864;4.406;2022-12-29T06:58:13;16.50;76.50
25732;DHT22;13585;50.864;4.406;2022-12-29T07:00:38;16.50;76.50
25732;DHT22;13585;50.864;4.406;2022-12-29T07:03:04;16.50;76.40
25732;DHT22;13585;50.864;4.406;2022-12-29T07:05:30;16.50;76.40
25732;DHT22;13585;50.864;4.406;2022-12-29T07:07:58;16.50;76.40
25732;DHT22;13585;50.864;4.406;2022-12-29T07:10:24;16.50;76.40
25732;DHT22;13585;50.864;4.406;2022-12-29T07:12:49;16.50;76.30
25732;DHT22;13585;50.864;4.406;2022-12-29T07:15:15;16.50;76.30
25732;DHT22;13585;50.864;4.406;2022-12-29T07:17:41;16.50;76.30
25732;DHT22;13585;50.864;4.406;2022-12-29T07:20:07;16.50;76.30
25732;DHT22;13585;50.864;4.406;2022-12-29T07:22:33;16.50;76.20
25732;DHT22;13585;50.864;4.406;2022-12-29T07:24:59;16.50;76.20
25732;DHT22;13585;50.864;4.406;2022-12-29T07:27:25;16.50;76.20
25732;DHT22;13585;50.864;4.406;2022-12-29T07:29:53;16.50;76.20
25732;DHT22;13585;50.864;4.406;2022-12-29T07:32:18;16.50;76.20
25732;DHT22;13585;50.864;4.406;2022-12-29T07:34:44;16.50;76.20
25732;DHT22;13585;50.864;4.406;2022-12-29T07:37:14;16.50;76.20
25732;DHT22;13585;50.864;4.406;2022-12-29T07:39:39;16.50;76.10
25732;DHT22;13585;50.864;4.406;2022-12-29T07:42:05;16.50;76.10
25732;DHT22;13585;50.864;4.406;2022-12-29T07:44:31;16.50;76.00
25732;DHT22;13585;50.864;4.406;2022-12-29T07:46:56;16.50;76.00
25732;DHT22;13585;50.864;4.406;2022-12-29T07:49:28;16.50;76.00
25732;DHT22;13585;50.864;4.406;2022-12-29T07:51:54;16.50;75.90
25732;DHT22;13585;50.864;4.406;2022-12-29T07:54:20;16.50;75.90
25732;DHT22;13585;50.864;4.406;2022-12-29T07:56:46;16.50;75.90
25732;DHT22;13585;50.864;4.406;2022-12-29T07:59:13;16.50;75.90
25732;DHT22;13585;50.864;4.406;2022-12-29T08:01:46;16.50;75.80
25732;DHT22;13585;50.864;4.406;2022-12-29T08:04:11;16.50;75.90
25732;DHT22;13585;50.864;4.406;2022-12-29T08:06:37;16.50;75.80
25732;DHT22;13585;50.864;4.406;2022-12-29T08:09:03;16.50;75.70
25732;DHT22;13585;50.864;4.406;2022-12-29T08:11:29;16.50;75.70
25732;DHT22;13585;50.864;4.406;2022-12-29T08:13:57;16.50;75.70
25732;DHT22;13585;50.864;4.406;2022-12-29T08:16:29;16.40;75.60
25732;DHT22;13585;50.864;4.406;2022-12-29T08:18:57;16.50;75.70
25732;DHT22;13585;50.864;4.406;2022-12-29T08:21:24;16.50;75.60
25732;DHT22;13585;50.864;4.406;2022-12-29T08:23:50;16.50;75.60
25732;DHT22;13585;50.864;4.406;2022-12-29T08:26:15;16.50;75.50
25732;DHT22;13585;50.864;4.406;2022-12-29T08:28:41;16.50;75.50
25732;DHT22;13585;50.864;4.406;2022-12-29T08:31:07;16.50;75.50
25732;DHT22;13585;50.864;4.406;2022-12-29T08:33:33;16.50;75.40
25732;DHT22;13585;50.864;4.406;2022-12-29T08:36:03;16.50;75.40
25732;DHT22;13585;50.864;4.406;2022-12-29T08:38:30;16.50;75.40
25732;DHT22;13585;50.864;4.406;2022-12-29T08:41:08;16.50;75.40
25732;DHT22;13585;50.864;4.406;2022-12-29T08:43:33;16.40;75.50
25732;DHT22;13585;50.864;4.406;2022-12-29T08:46:00;16.50;75.50
25732;DHT22;13585;50.864;4.406;2022-12-29T08:48:26;16.50;76.20
25732;DHT22;13585;50.864;4.406;2022-12-29T08:50:52;16.50;75.50
25732;DHT22;13585;50.864;4.406;2022-12-29T08:53:18;16.50;75.60
25732;DHT22;13585;50.864;4.406;2022-12-29T08:55:58;16.50;75.50
25732;DHT22;13585;50.864;4.406;2022-12-29T08:58:33;16.50;75.60
25732;DHT22;13585;50.864;4.406;2022-12-29T09:00:59;16.50;75.40
25732;DHT22;13585;50.864;4.406;2022-12-29T09:03:25;16.50;75.50
25732;DHT22;13585;50.864;4.406;2022-12-29T09:05:52;16.50;75.50
25732;DHT22;13585;50.864;4.406;2022-12-29T09:08:19;16.50;75.50
25732;DHT22;13585;50.864;4.406;2022-12-29T09:10:51;16.50;75.50
25732;DHT22;13585;50.864;4.406;2022-12-29T09:13:17;16.50;75.60
25732;DHT22;13585;50.864;4.406;2022-12-29T09:15:43;16.50;75.50
25732;DHT22;13585;50.864;4.406;2022-12-29T09:18:10;16.50;75.50
25732;DHT22;13585;50.864;4.406;2022-12-29T09:20:44;16.50;75.50
25732;DHT22;13585;50.864;4.406;2022-12-29T09:23:10;16.50;75.50
25732;DHT22;13585;50.864;4.406;2022-12-29T09:25:36;16.50;75.50
25732;DHT22;13585;50.864;4.406;2022-12-29T09:28:04;16.50;75.50
25732;DHT22;13585;50.864;4.406;2022-12-29T09:30:34;16.50;75.40
25732;DHT22;13585;50.864;4.406;2022-12-29T09:33:00;16.50;75.40
25732;DHT22;13585;50.864;4.406;2022-12-29T09:35:25;16.50;75.30
25732;DHT22;13585;50.864;4.406;2022-12-29T09:37:51;16.50;75.30
25732;DHT22;13585;50.864;4.406;2022-12-29T09:40:29;16.50;75.30
25732;DHT22;13585;50.864;4.406;2022-12-29T09:48:14;16.50;75.20
25732;DHT22;13585;50.864;4.406;2022-12-29T09:50:44;16.50;75.20
25732;DHT22;13585;50.864;4.406;2022-12-29T09:53:40;16.50;75.20
25732;DHT22;13585;50.864;4.406;2022-12-29T09:56:15;16.50;75.20
25732;DHT22;13585;50.864;4.406;2022-12-29T09:58:48;16.50;75.20
25732;DHT22;13585;50.864;4.406;2022-12-29T10:03:58;16.50;75.20
25732;DHT22;13585;50.864;4.406;2022-12-29T10:06:45;16.50;75.10
25732;DHT22;13585;50.864;4.406;2022-12-29T10:17:36;16.50;74.90
25732;DHT22;13585;50.864;4.406;2022-12-29T10:20:42;16.50;74.90
25732;DHT22;13585;50.864;4.406;2022-12-29T10:25:48;16.50;75.60
25732;DHT22;13585;50.864;4.406;2022-12-29T10:28:21;16.50;74.70
25732;DHT22;13585;50.864;4.406;2022-12-29T10:30:48;16.50;74.80
25732;DHT22;13585;50.864;4.406;2022-12-29T10:33:24;16.50;74.80
25732;DHT22;13585;50.864;4.406;2022-12-29T10:35:52;16.50;74.80
25732;DHT22;13585;50.864;4.406;2022-12-29T10:38:27;16.50;74.80
25732;DHT22;13585;50.864;4.406;2022-12-29T10:43:30;16.50;74.80
25732;DHT22;13585;50.864;4.406;2022-12-29T10:46:05;16.50;74.80
25732;DHT22;13585;50.864;4.406;2022-12-29T10:48:34;16.50;74.70
25732;DHT22;13585;50.864;4.406;2022-12-29T10:54:11;16.50;74.90
25732;DHT22;13585;50.864;4.406;2022-12-29T10:56:59;16.50;75.00
25732;DHT22;13585;50.864;4.406;2022-12-29T10:59:30;16.50;75.10
25732;DHT22;13585;50.864;4.406;2022-12-29T11:07:53;16.50;75.20
25732;DHT22;13585;50.864;4.406;2022-12-29T11:15:56;16.50;75.20
25732;DHT22;13585;50.864;4.406;2022-12-29T11:18:46;16.50;75.30
25732;DHT22;13585;50.864;4.406;2022-12-29T11:21:38;16.50;75.50
25732;DHT22;13585;50.864;4.406;2022-12-29T11:24:23;16.50;75.70
25732;DHT22;13585;50.864;4.406;2022-12-29T11:26:51;16.50;75.70
25732;DHT22;13585;50.864;4.406;2022-12-29T11:29:27;16.50;75.80
25732;DHT22;13585;50.864;4.406;2022-12-29T11:34:45;16.60;76.10
25732;DHT22;13585;50.864;4.406;2022-12-29T11:37:17;16.50;76.00
25732;DHT22;13585;50.864;4.406;2022-12-29T11:39:57;16.60;76.10
25732;DHT22;13585;50.864;4.406;2022-12-29T11:47:33;16.60;76.30
25732;DHT22;13585;50.864;4.406;2022-12-29T11:50:03;16.50;76.20
25732;DHT22;13585;50.864;4.406;2022-12-29T11:52:32;16.60;76.30
25732;DHT22;13585;50.864;4.406;2022-12-29T11:56:04;16.60;76.30
25732;DHT22;13585;50.864;4.406;2022-12-29T12:01:56;16.60;76.40
25732;DHT22;13585;50.864;4.406;2022-12-29T12:04:32;16.50;76.20
25732;DHT22;13585;50.864;4.406;2022-12-29T12:07:11;16.50;76.20
25732;DHT22;13585;50.864;4.406;2022-12-29T12:09:49;16.60;76.40
25732;DHT22;13585;50.864;4.406;2022-12-29T12:15:03;16.50;76.30
25732;DHT22;13585;50.864;4.406;2022-12-29T12:25:59;16.50;76.30
25732;DHT22;13585;50.864;4.406;2022-12-29T12:29:01;16.50;76.20
25732;DHT22;13585;50.864;4.406;2022-12-29T12:31:49;16.50;76.20
25732;DHT22;13585;50.864;4.406;2022-12-29T12:34:30;16.60;76.30
25732;DHT22;13585;50.864;4.406;2022-12-29T12:37:43;16.60;76.20
25732;DHT22;13585;50.864;4.406;2022-12-29T13:00:11;16.50;76.50
25732;DHT22;13585;50.864;4.406;2022-12-29T13:05:24;16.50;76.50
25732;DHT22;13585;50.864;4.406;2022-12-29T13:10:55;16.60;76.60
25732;DHT22;13585;50.864;4.406;2022-12-29T13:13:40;16.50;76.60
25732;DHT22;13585;50.864;4.406;2022-12-29T13:19:28;16.60;76.70
25732;DHT22;13585;50.864;4.406;2022-12-29T13:22:07;16.50;76.50
25732;DHT22;13585;50.864;4.406;2022-12-29T13:30:09;16.60;76.60
25732;DHT22;13585;50.864;4.406;2022-12-29T13:38:24;16.60;76.90
25732;DHT22;13585;50.864;4.406;2022-12-29T13:40:55;16.60;76.80
25732;DHT22;13585;50.864;4.406;2022-12-29T13:43:22;16.60;76.80
25732;DHT22;13585;50.864;4.406;2022-12-29T13:46:09;16.60;77.00
25732;DHT22;13585;50.864;4.406;2022-12-29T13:48:57;16.60;77.00
25732;DHT22;13585;50.864;4.406;2022-12-29T13:51:24;16.60;77.00
25732;DHT22;13585;50.864;4.406;2022-12-29T13:56:59;16.60;77.10
25732;DHT22;13585;50.864;4.406;2022-12-29T14:02:45;16.60;77.10
25732;DHT22;13585;50.864;4.406;2022-12-29T14:07:49;16.60;77.20
25732;DHT22;13585;50.864;4.406;2022-12-29T14:13:16;16.60;77.20
25732;DHT22;13585;50.864;4.406;2022-12-29T14:15:45;16.60;77.20
25732;DHT22;13585;50.864;4.406;2022-12-29T14:18:12;16.60;77.20
25732;DHT22;13585;50.864;4.406;2022-12-29T14:23:45;16.70;77.40
25732;DHT22;13585;50.864;4.406;2022-12-29T14:28:55;16.60;77.40
25732;DHT22;13585;50.864;4.406;2022-12-29T14:44:52;16.60;77.40
25732;DHT22;13585;50.864;4.406;2022-12-29T14:47:33;16.60;77.40
25732;DHT22;13585;50.864;4.406;2022-12-29T14:50:18;16.60;77.50
25732;DHT22;13585;50.864;4.406;2022-12-29T14:57:52;16.60;77.40
25732;DHT22;13585;50.864;4.406;2022-12-29T15:00:23;16.60;77.40
25732;DHT22;13585;50.864;4.406;2022-12-29T15:03:14;16.60;77.30
25732;DHT22;13585;50.864;4.406;2022-12-29T15:05:54;16.60;77.40
25732;DHT22;13585;50.864;4.406;2022-12-29T15:08:26;16.60;77.30
25732;DHT22;13585;50.864;4.406;2022-12-29T15:10:59;16.60;77.30
25732;DHT22;13585;50.864;4.406;2022-12-29T15:13:37;16.60;77.20
25732;DHT22;13585;50.864;4.406;2022-12-29T15:16:04;16.60;77.30
25732;DHT22;13585;50.864;4.406;2022-12-29T15:18:32;16.60;77.20
25732;DHT22;13585;50.864;4.406;2022-12-29T15:21:03;16.60;77.20
25732;DHT22;13585;50.864;4.406;2022-12-29T15:23:32;16.60;77.20
25732;DHT22;13585;50.864;4.406;2022-12-29T15:26:04;16.60;77.10
25732;DHT22;13585;50.864;4.406;2022-12-29T15:28:37;16.60;77.10
25732;DHT22;13585;50.864;4.406;2022-12-29T15:33:48;16.70;76.90
25732;DHT22;13585;50.864;4.406;2022-12-29T15:36:26;16.60;76.90
25732;DHT22;13585;50.864;4.406;2022-12-29T15:39:00;16.60;77.00
25732;DHT22;13585;50.864;4.406;2022-12-29T15:41:42;16.60;77.00
25732;DHT22;13585;50.864;4.406;2022-12-29T15:44:50;16.60;77.00
25732;DHT22;13585;50.864;4.406;2022-12-29T15:47:22;16.60;77.00
25732;DHT22;13585;50.864;4.406;2022-12-29T15:49:49;16.60;76.90
25732;DHT22;13585;50.864;4.406;2022-12-29T15:52:20;16.60;76.90
25732;DHT22;13585;50.864;4.406;2022-12-29T15:54:48;16.60;76.90
25732;DHT22;13585;50.864;4.406;2022-12-29T15:57:28;16.60;76.80
25732;DHT22;13585;50.864;4.406;2022-12-29T15:59:54;16.60;76.80
25732;DHT22;13585;50.864;4.406;2022-12-29T16:02:24;16.60;76.80
25732;DHT22;13585;50.864;4.406;2022-12-29T16:04:50;16.60;76.80
25732;DHT22;13585;50.864;4.406;2022-12-29T16:07:30;16.60;76.80
25732;DHT22;13585;50.864;4.406;2022-12-29T16:09:59;16.60;76.80
25732;DHT22;13585;50.864;4.406;2022-12-29T16:12:31;16.60;76.70
25732;DHT22;13585;50.864;4.406;2022-12-29T16:14:59;16.60;76.70
25732;DHT22;13585;50.864;4.406;2022-12-29T16:17:29;16.60;76.60
25732;DHT22;13585;50.864;4.406;2022-12-29T16:20:06;16.60;76.60
25732;DHT22;13585;50.864;4.406;2022-12-29T16:22:41;16.60;76.60
25732;DHT22;13585;50.864;4.406;2022-12-29T16:25:30;16.60;76.50
25732;DHT22;13585;50.864;4.406;2022-12-29T16:27:58;16.60;76.60
25732;DHT22;13585;50.864;4.406;2022-12-29T16:30:29;16.60;76.50
25732;DHT22;13585;50.864;4.406;2022-12-29T16:33:03;16.60;76.40
25732;DHT22;13585;50.864;4.406;2022-12-29T16:38:16;16.50;76.30
25732;DHT22;13585;50.864;4.406;2022-12-29T16:41:01;16.60;76.30
25732;DHT22;13585;50.864;4.406;2022-12-29T16:43:33;16.50;76.30
25732;DHT22;13585;50.864;4.406;2022-12-29T16:49:19;16.60;76.20
25732;DHT22;13585;50.864;4.406;2022-12-29T16:51:45;16.50;76.20
25732;DHT22;13585;50.864;4.406;2022-12-29T16:54:20;16.50;76.10
25732;DHT22;13585;50.864;4.406;2022-12-29T16:56:50;16.50;76.10
25732;DHT22;13585;50.864;4.406;2022-12-29T17:01:59;16.50;76.10
25732;DHT22;13585;50.864;4.406;2022-12-29T17:04:29;16.60;76.10
25732;DHT22;13585;50.864;4.406;2022-12-29T17:10:10;16.50;76.10
25732;DHT22;13585;50.864;4.406;2022-12-29T17:12:41;16.60;76.00
25732;DHT22;13585;50.864;4.406;2022-12-29T17:15:26;16.60;76.10
25732;DHT22;13585;50.864;4.406;2022-12-29T17:17:56;16.50;75.90
25732;DHT22;13585;50.864;4.406;2022-12-29T17:20:26;16.50;75.80
25732;DHT22;13585;50.864;4.406;2022-12-29T17:22:52;16.60;75.90
25732;DHT22;13585;50.864;4.406;2022-12-29T17:25:33;16.60;75.80
25732;DHT22;13585;50.864;4.406;2022-12-29T17:28:06;16.60;75.80
25732;DHT22;13585;50.864;4.406;2022-12-29T17:30:36;16.60;75.80
25732;DHT22;13585;50.864;4.406;2022-12-29T17:33:06;16.60;75.80
25732;DHT22;13585;50.864;4.406;2022-12-29T17:35:35;16.60;75.70
25732;DHT22;13585;50.864;4.406;2022-12-29T17:38:00;16.60;75.60
25732;DHT22;13585;50.864;4.406;2022-12-29T17:40:28;16.60;75.60
25732;DHT22;13585;50.864;4.406;2022-12-29T17:42:56;16.60;75.60
25732;DHT22;13585;50.864;4.406;2022-12-29T17:45:30;16.60;75.60
25732;DHT22;13585;50.864;4.406;2022-12-29T17:47:58;16.60;75.60
25732;DHT22;13585;50.864;4.406;2022-12-29T17:50:29;16.60;75.50
25732;DHT22;13585;50.864;4.406;2022-12-29T17:53:01;16.60;75.50
25732;DHT22;13585;50.864;4.406;2022-12-29T17:55:28;16.60;75.50
25732;DHT22;13585;50.864;4.406;2022-12-29T17:57:54;16.70;75.50
25732;DHT22;13585;50.864;4.406;2022-12-29T18:00:25;16.70;75.50
25732;DHT22;13585;50.864;4.406;2022-12-29T18:02:56;16.70;75.50
25732;DHT22;13585;50.864;4.406;2022-12-29T18:05:31;16.70;75.40
25732;DHT22;13585;50.864;4.406;2022-12-29T18:07:58;16.70;75.50
25732;DHT22;13585;50.864;4.406;2022-12-29T18:10:26;16.70;75.30
25732;DHT22;13585;50.864;4.406;2022-12-29T18:12:54;16.70;75.40
25732;DHT22;13585;50.864;4.406;2022-12-29T18:15:29;16.70;75.30
25732;DHT22;13585;50.864;4.406;2022-12-29T18:18:16;16.70;75.40
25732;DHT22;13585;50.864;4.406;2022-12-29T18:20:43;16.70;75.50
25732;DHT22;13585;50.864;4.406;2022-12-29T18:23:41;16.70;75.30
25732;DHT22;13585;50.864;4.406;2022-12-29T18:28:36;16.80;75.40
25732;DHT22;13585;50.864;4.406;2022-12-29T18:31:01;16.70;75.30
25732;DHT22;13585;50.864;4.406;2022-12-29T18:33:28;16.80;75.40
25732;DHT22;13585;50.864;4.406;2022-12-29T18:35:59;16.80;75.40
25732;DHT22;13585;50.864;4.406;2022-12-29T18:38:26;16.70;75.30
25732;DHT22;13585;50.864;4.406;2022-12-29T18:40:52;16.80;75.40
25732;DHT22;13585;50.864;4.406;2022-12-29T18:43:19;16.80;75.30
25732;DHT22;13585;50.864;4.406;2022-12-29T18:45:45;16.80;75.40
25732;DHT22;13585;50.864;4.406;2022-12-29T18:48:14;16.80;75.40
25732;DHT22;13585;50.864;4.406;2022-12-29T18:50:41;16.80;75.40
25732;DHT22;13585;50.864;4.406;2022-12-29T18:53:14;16.80;75.50
25732;DHT22;13585;50.864;4.406;2022-12-29T18:55:41;16.80;75.60
25732;DHT22;13585;50.864;4.406;2022-12-29T18:58:06;16.80;75.50
25732;DHT22;13585;50.864;4.406;2022-12-29T19:00:32;16.80;75.60
25732;DHT22;13585;50.864;4.406;2022-12-29T19:02:58;16.80;75.70
25732;DHT22;13585;50.864;4.406;2022-12-29T19:05:27;16.80;75.70
25732;DHT22;13585;50.864;4.406;2022-12-29T19:07:53;16.80;75.80
25732;DHT22;13585;50.864;4.406;2022-12-29T19:10:20;16.80;75.70
25732;DHT22;13585;50.864;4.406;2022-12-29T19:12:47;16.80;75.70
25732;DHT22;13585;50.864;4.406;2022-12-29T19:15:27;16.90;75.90
25732;DHT22;13585;50.864;4.406;2022-12-29T19:17:55;16.90;76.00
25732;DHT22;13585;50.864;4.406;2022-12-29T19:22:59;16.90;76.00